createdAt,value
2023-02-27T00:04:54.917Z,52.40
2023-02-27T00:09:59.061Z,52.20
2023-02-27T00:15:03.038Z,52.20
2023-02-27T00:20:14.204Z,52.20
2023-02-27T00:25:18.740Z,52.50
2023-02-27T00:30:22.854Z,52.50
2023-02-27T00:35:26.774Z,52.30
2023-02-27T00:40:30.712Z,51.60
2023-02-27T00:45:34.848Z,50.60
2023-02-27T00:50:38.901Z,49.90
2023-02-27T00:55:43.058Z,49.30
2023-02-27T01:00:47.000Z,48.80
2023-02-27T01:05:51.992Z,48.80
2023-02-27T01:10:57.391Z,48.50
2023-02-27T01:16:01.339Z,48.40
2023-02-27T01:21:06.355Z,47.90
2023-02-27T01:26:11.210Z,48.40
2023-02-27T01:31:15.488Z,48.40
2023-02-27T01:36:19.580Z,48.40
2023-02-27T01:41:24.018Z,48.30
2023-02-27T01:46:30.814Z,48.40
2023-02-27T01:51:44.019Z,48.30
2023-02-27T01:56:48.601Z,48.40
2023-02-27T02:01:53.313Z,48.30
2023-02-27T02:07:12.743Z,48.50
2023-02-27T02:12:19.129Z,48.50
2023-02-27T02:17:28.586Z,48.90
2023-02-27T02:22:51.148Z,48.70
2023-02-27T02:28:07.249Z,49.00
2023-02-27T02:33:38.241Z,49.30
2023-02-27T02:38:53.182Z,49.70
2023-02-27T02:44:10.471Z,50.00
2023-02-27T02:49:30.757Z,50.10
2023-02-27T02:54:47.636Z,50.30
2023-02-27T03:00:02.059Z,50.30
2023-02-27T03:05:35.506Z,50.50
2023-02-27T03:10:48.960Z,50.80
2023-02-27T03:16:02.855Z,50.70
2023-02-27T03:21:10.927Z,51.00
2023-02-27T03:26:20.379Z,51.20
2023-02-27T03:31:31.799Z,51.30
2023-02-27T03:37:06.023Z,51.60
2023-02-27T03:42:26.826Z,51.40
2023-02-27T03:47:50.188Z,51.40
2023-02-27T03:52:54.481Z,51.20
2023-02-27T03:57:58.967Z,50.90
2023-02-27T04:03:03.248Z,50.00
2023-02-27T04:08:55.341Z,50.10
2023-02-27T04:14:02.253Z,49.60
2023-02-27T04:19:26.339Z,48.40
2023-02-27T04:25:02.193Z,48.20
2023-02-27T04:30:08.693Z,48.20
2023-02-27T04:35:22.736Z,48.20
2023-02-27T04:40:36.759Z,48.30
2023-02-27T04:45:42.997Z,48.20
2023-02-27T04:50:59.134Z,48.60
2023-02-27T04:56:08.712Z,48.30
2023-02-27T05:01:22.304Z,48.00
2023-02-27T05:06:31.333Z,48.00
2023-02-27T05:11:41.833Z,48.00
2023-02-27T05:16:52.641Z,48.30
2023-02-27T05:22:06.382Z,47.80
2023-02-27T05:27:24.248Z,47.80
2023-02-27T05:32:37.311Z,47.80
2023-02-27T05:37:50.478Z,47.30
2023-02-27T05:43:03.470Z,47.80
2023-02-27T05:48:23.631Z,48.10
2023-02-27T05:53:33.734Z,48.40
2023-02-27T05:58:45.201Z,48.60
2023-02-27T06:03:50.688Z,49.00
2023-02-27T06:08:54.621Z,48.80
2023-02-27T06:13:58.684Z,49.50
2023-02-27T06:19:04.835Z,49.60
2023-02-27T06:24:08.845Z,49.70
2023-02-27T06:29:12.785Z,49.70
2023-02-27T06:34:16.713Z,50.10
2023-02-27T06:39:20.545Z,50.20
2023-02-27T06:44:24.572Z,50.40
2023-02-27T06:49:28.505Z,50.40
2023-02-27T06:54:32.644Z,50.40
2023-02-27T06:59:36.685Z,51.30
2023-02-27T07:04:41.019Z,51.90
2023-02-27T07:09:44.844Z,51.40
2023-02-27T07:14:48.673Z,51.80
2023-02-27T07:19:52.512Z,51.90
2023-02-27T07:24:56.530Z,52.10
2023-02-27T07:30:01.508Z,52.20
2023-02-27T07:35:06.745Z,52.30
2023-02-27T07:40:11.392Z,52.30
2023-02-27T07:45:15.675Z,52.70
2023-02-27T07:50:19.554Z,52.70
2023-02-27T07:55:23.486Z,52.30
2023-02-27T08:00:27.632Z,52.30
2023-02-27T08:05:31.658Z,53.40
2023-02-27T08:10:35.505Z,52.10
2023-02-27T08:15:39.428Z,52.50
2023-02-27T08:20:43.343Z,52.00
2023-02-27T08:25:47.717Z,50.70
2023-02-27T08:30:52.545Z,50.00
2023-02-27T08:35:57.595Z,50.10
2023-02-27T08:41:01.953Z,49.30
2023-02-27T08:46:06.478Z,49.20
2023-02-27T08:51:10.820Z,48.70
2023-02-27T08:56:15.058Z,48.70
2023-02-27T09:01:19.731Z,48.40
2023-02-27T09:06:26.108Z,48.50
2023-02-27T09:11:31.093Z,48.10
2023-02-27T09:16:35.544Z,48.20
2023-02-27T09:21:39.725Z,47.70
2023-02-27T09:26:46.461Z,47.50
2023-02-27T09:31:51.143Z,47.70
2023-02-27T09:36:55.301Z,47.60
2023-02-27T09:42:22.814Z,47.50
2023-02-27T09:47:37.617Z,47.60
2023-02-27T09:52:41.702Z,47.30
2023-02-27T09:58:27.579Z,46.80
2023-02-27T10:03:43.998Z,47.40
2023-02-27T10:09:05.124Z,46.80
2023-02-27T10:14:09.144Z,46.70
2023-02-27T10:19:19.726Z,46.80
2023-02-27T10:24:30.825Z,46.60
2023-02-27T10:29:42.068Z,46.70
2023-02-27T10:35:09.078Z,47.00
2023-02-27T10:40:15.459Z,47.50
2023-02-27T10:45:19.386Z,47.40
2023-02-27T10:50:31.199Z,47.50
2023-02-27T10:55:37.175Z,47.50
2023-02-27T11:00:52.974Z,48.10
2023-02-27T11:06:04.900Z,47.90
2023-02-27T11:11:11.579Z,48.10
2023-02-27T11:16:23.580Z,49.00
2023-02-27T11:21:30.743Z,48.80
2023-02-27T11:26:38.246Z,49.00
2023-02-27T11:31:52.385Z,48.80
2023-02-27T11:37:01.019Z,48.70
2023-02-27T11:42:18.442Z,49.10
2023-02-27T11:47:28.845Z,49.00
2023-02-27T11:52:51.075Z,49.80
2023-02-27T11:58:22.546Z,50.10
2023-02-27T12:03:34.590Z,49.80
2023-02-27T12:08:45.630Z,49.80
2023-02-27T12:13:57.334Z,49.70
2023-02-27T12:19:21.869Z,49.70
2023-02-27T12:24:36.612Z,49.70
2023-02-27T12:29:49.716Z,49.60
2023-02-27T12:34:59.481Z,49.80
2023-02-27T12:40:09.421Z,49.80
2023-02-27T12:45:19.352Z,49.80
2023-02-27T12:50:26.359Z,49.90
2023-02-27T12:55:47.696Z,49.70
2023-02-27T13:01:14.716Z,50.10
2023-02-27T13:07:00.132Z,50.10
2023-02-27T13:12:33.825Z,50.10
2023-02-27T13:17:43.425Z,50.10
2023-02-27T13:22:56.246Z,50.10
2023-02-27T13:28:05.883Z,50.10
2023-02-27T13:33:21.573Z,48.70
2023-02-27T13:38:56.162Z,48.50
2023-02-27T13:44:21.355Z,47.80
2023-02-27T13:49:30.059Z,47.40
2023-02-27T13:54:42.162Z,47.30
2023-02-27T13:59:54.517Z,47.30
2023-02-27T14:05:03.188Z,47.20
2023-02-27T14:10:11.716Z,47.10
2023-02-27T14:15:19.172Z,47.00
2023-02-27T14:20:30.810Z,46.80
2023-02-27T14:25:48.511Z,46.90
2023-02-27T14:31:39.698Z,46.50
2023-02-27T14:36:59.574Z,46.40
2023-02-27T14:42:24.903Z,46.10
2023-02-27T14:47:35.421Z,46.00
2023-02-27T14:52:43.945Z,45.80
2023-02-27T14:58:14.115Z,45.80
2023-02-27T15:03:22.042Z,45.80
2023-02-27T15:08:30.674Z,45.70
2023-02-27T15:13:40.338Z,44.90
2023-02-27T15:19:07.292Z,43.50
2023-02-27T15:24:40.626Z,43.80
2023-02-27T15:29:58.038Z,43.70
2023-02-27T15:35:20.475Z,44.30
2023-02-27T15:40:28.704Z,45.10
2023-02-27T15:45:36.043Z,45.70
2023-02-27T15:50:44.552Z,46.50
2023-02-27T15:55:57.798Z,46.60
2023-02-27T16:01:20.291Z,47.50
2023-02-27T16:06:36.626Z,49.70
2023-02-27T16:11:41.391Z,51.30
2023-02-27T16:16:55.050Z,51.70
2023-02-27T16:22:16.817Z,51.90
2023-02-27T16:27:26.840Z,52.40
2023-02-27T16:32:38.455Z,52.60
2023-02-27T16:37:45.979Z,54.00
2023-02-27T16:42:51.481Z,54.40
2023-02-27T16:47:58.245Z,54.00
2023-02-27T16:53:02.186Z,53.30
2023-02-27T16:58:07.210Z,52.90
2023-02-27T17:03:12.307Z,52.50
2023-02-27T17:08:17.122Z,52.70
2023-02-27T17:13:21.476Z,52.10
2023-02-27T17:18:26.689Z,51.90
2023-02-27T17:23:31.885Z,51.60
2023-02-27T17:28:38.894Z,51.40
2023-02-27T17:33:44.456Z,51.10
2023-02-27T17:38:56.377Z,50.80
2023-02-27T17:44:03.620Z,51.80
2023-02-27T17:49:10.680Z,51.00
2023-02-27T17:54:16.152Z,50.60
2023-02-27T17:59:21.296Z,50.70
2023-02-27T18:04:26.548Z,50.20
2023-02-27T18:09:32.970Z,50.40
2023-02-27T18:14:39.067Z,49.60
2023-02-27T18:19:48.147Z,49.20
2023-02-27T18:25:01.260Z,49.60
2023-02-27T18:30:10.072Z,49.90
2023-02-27T18:35:18.151Z,50.00
2023-02-27T18:40:25.421Z,49.80
2023-02-27T18:45:31.375Z,50.00
2023-02-27T18:50:38.182Z,50.00
2023-02-27T18:55:45.991Z,50.00
2023-02-27T19:00:56.958Z,50.10
2023-02-27T19:06:03.716Z,50.30
2023-02-27T19:11:10.998Z,50.30
2023-02-27T19:16:18.010Z,50.30
2023-02-27T19:21:25.456Z,50.20
2023-02-27T19:26:35.655Z,50.20
2023-02-27T19:31:43.044Z,50.50
2023-02-27T19:36:48.873Z,50.30
2023-02-27T19:41:55.393Z,50.50
2023-02-27T19:47:02.217Z,50.60
2023-02-27T19:52:10.221Z,50.60
2023-02-27T19:57:23.079Z,50.50
2023-02-27T20:02:31.439Z,50.90
2023-02-27T20:07:41.284Z,49.60
2023-02-27T20:12:50.032Z,48.90
2023-02-27T20:17:58.430Z,48.70
2023-02-27T20:23:06.357Z,47.90
2023-02-27T20:28:13.808Z,47.40
2023-02-27T20:33:20.030Z,47.40
2023-02-27T20:38:26.549Z,47.40
2023-02-27T20:43:33.707Z,48.00
2023-02-27T20:48:39.370Z,48.30
2023-02-27T20:53:47.982Z,49.20
2023-02-27T20:58:55.378Z,48.50
2023-02-27T21:04:02.287Z,48.50
2023-02-27T21:09:07.674Z,48.40
2023-02-27T21:14:13.028Z,49.80
2023-02-27T21:19:17.688Z,48.70
2023-02-27T21:24:22.830Z,48.50
2023-02-27T21:29:29.335Z,48.30
2023-02-27T21:34:34.271Z,48.30
2023-02-27T21:39:39.532Z,48.40
2023-02-27T21:44:44.383Z,48.30
2023-02-27T21:49:48.798Z,48.20
2023-02-27T21:54:54.789Z,48.00
2023-02-27T21:59:59.127Z,47.90
2023-02-27T22:05:03.424Z,47.80
2023-02-27T22:10:09.027Z,48.20
2023-02-27T22:15:12.846Z,48.10
2023-02-27T22:20:17.200Z,53.80
2023-02-27T22:25:21.532Z,52.60
2023-02-27T22:30:28.493Z,52.70
2023-02-27T22:35:34.314Z,52.30
2023-02-27T22:40:39.148Z,52.50
2023-02-27T22:45:47.299Z,52.60
2023-02-27T22:51:03.419Z,52.30
2023-02-27T22:56:10.154Z,52.60
2023-02-27T23:01:19.757Z,52.30
2023-02-27T23:06:26.642Z,52.60
2023-02-27T23:11:30.692Z,52.70
2023-02-27T23:16:35.607Z,52.70
2023-02-27T23:21:40.582Z,52.60
2023-02-27T23:26:47.789Z,52.50
2023-02-27T23:31:53.837Z,52.60
2023-02-27T23:36:58.422Z,52.40
2023-02-27T23:42:02.379Z,52.20
2023-02-27T23:47:06.481Z,52.40
2023-02-27T23:52:10.407Z,52.90
2023-02-27T23:57:14.226Z,53.50
